Time;durP1;ratioP1;P1;durP2;ratioP2;P2;SDS_P1;SDS_P2;PMS_P1;PMS_P2;Temp;Humidity;BMP_temperature;BMP_pressure;BME280_temperature;BME280_humidity;BME280_pressure;Samples;Min_cycle;Max_cycle;Signal;HPM_P1;HPM_P2
2022/06/03 00:01:08;;;;;;;2.93;2.20;;;20.60;72.00;;;;;;5036823;28;20414;-94
2022/06/03 00:04:13;;;;;;;2.57;2.10;;;20.60;72.10;;;;;;5019933;28;20829;-93
2022/06/03 00:06:47;;;;;;;2.40;2.20;;;20.50;71.90;;;;;;5035494;28;20425;-89
2022/06/03 00:09:44;;;;;;;4.03;2.20;;;20.50;72.00;;;;;;5019839;28;20441;-94
2022/06/03 00:12:31;;;;;;;2.17;1.97;;;20.50;72.10;;;;;;5036213;28;20503;-92
2022/06/03 00:15:24;;;;;;;2.73;2.43;;;20.50;72.10;;;;;;5037939;28;20421;-94
2022/06/03 00:17:58;;;;;;;3.00;2.70;;;20.50;72.10;;;;;;5067790;28;20470;-93
2022/06/03 00:20:44;;;;;;;2.43;1.97;;;20.50;72.20;;;;;;5019676;28;20553;-94
2022/06/03 00:23:43;;;;;;;3.60;2.00;;;20.50;72.20;;;;;;5019292;28;20513;-94
2022/06/03 00:26:28;;;;;;;2.13;1.97;;;20.40;72.00;;;;;;5019522;28;20414;-93
2022/06/03 00:29:05;;;;;;;2.67;2.17;;;20.40;72.10;;;;;;5019457;28;20430;-93
2022/06/03 00:31:57;;;;;;;2.27;2.07;;;20.40;72.20;;;;;;5019128;28;21001;-93
2022/06/03 00:34:35;;;;;;;2.20;2.00;;;20.40;72.30;;;;;;5017825;28;20450;-94
2022/06/03 00:37:04;;;;;;;2.70;2.50;;;20.40;72.30;;;;;;5019777;28;20912;-93
2022/06/03 00:39:42;;;;;;;3.20;1.97;;;20.40;72.40;;;;;;5055427;28;20449;-94
2022/06/03 00:42:27;;;;;;;2.87;2.33;;;20.40;72.40;;;;;;5055131;28;20529;-93
2022/06/03 00:44:59;;;;;;;2.30;2.10;;;20.30;72.30;;;;;;4998904;28;20421;-93
2022/06/03 00:47:43;;;;;;;2.50;2.30;;;20.30;72.40;;;;;;4993271;28;20433;-94
2022/06/03 00:50:17;;;;;;;2.27;2.07;;;20.30;72.50;;;;;;5035290;28;20544;-94
2022/06/03 00:53:10;;;;;;;3.33;2.40;;;20.30;72.50;;;;;;5035277;28;20502;-93
2022/06/03 00:55:37;;;;;;;2.50;2.30;;;20.30;72.50;;;;;;5002506;28;20797;-94
2022/06/03 00:58:24;;;;;;;3.90;2.17;;;20.30;72.60;;;;;;5035341;28;20430;-94
2022/06/03 01:01:04;;;;;;;2.50;2.30;;;20.30;72.60;;;;;;5035343;28;20461;-94
2022/06/03 01:03:48;;;;;;;2.03;1.93;;;20.20;72.50;;;;;;5051910;28;20531;-94
2022/06/03 01:06:35;;;;;;;2.50;2.20;;;20.20;72.60;;;;;;5035319;28;20840;-94
2022/06/03 01:09:32;;;;;;;2.43;2.23;;;20.20;72.60;;;;;;5035040;28;20393;-93
2022/06/03 01:12:16;;;;;;;2.30;2.10;;;20.20;72.70;;;;;;5035815;28;20803;-94
2022/06/03 01:14:58;;;;;;;2.50;2.30;;;20.20;72.80;;;;;;5035477;28;20757;-95
2022/06/03 01:17:50;;;;;;;2.80;2.60;;;20.20;72.80;;;;;;5015264;28;20438;-94
2022/06/03 01:20:26;;;;;;;2.53;2.33;;;20.10;72.70;;;;;;5015699;28;20512;-93
2022/06/03 01:23:20;;;;;;;2.30;2.20;;;20.10;72.80;;;;;;5018113;28;20788;-94
2022/06/03 01:26:10;;;;;;;2.57;2.37;;;20.10;72.80;;;;;;5034871;28;20436;-93
2022/06/03 01:28:57;;;;;;;2.33;2.13;;;20.10;72.80;;;;;;5034878;28;20888;-94
2022/06/03 01:32:01;;;;;;;2.90;2.70;;;20.10;72.90;;;;;;5018378;28;20459;-94
2022/06/03 01:35:00;;;;;;;2.50;2.30;;;20.10;72.90;;;;;;5018457;28;20728;-94
2022/06/03 01:37:41;;;;;;;2.10;2.00;;;20.00;72.90;;;;;;5034878;28;20461;-93
2022/06/03 01:40:32;;;;;;;3.23;2.03;;;20.00;73.00;;;;;;5018616;28;20424;-93
2022/06/03 01:43:28;;;;;;;2.30;2.20;;;20.00;73.10;;;;;;5035030;28;20430;-94
2022/06/03 01:46:12;;;;;;;2.87;2.67;;;20.00;73.10;;;;;;5035214;28;20760;-93
2022/06/03 01:48:56;;;;;;;3.23;2.33;;;20.00;73.10;;;;;;5001895;28;20473;-93
2022/06/03 01:51:43;;;;;;;2.50;2.30;;;20.00;73.20;;;;;;5018094;28;20975;-92
2022/06/03 01:54:37;;;;;;;2.60;2.27;;;19.90;73.10;;;;;;5041054;28;20455;-94
2022/06/03 01:57:12;;;;;;;2.13;1.97;;;19.90;73.20;;;;;;5067001;28;20419;-94
2022/06/03 02:00:17;;;;;;;3.40;2.20;;;19.90;73.20;;;;;;5021925;28;20445;-93
2022/06/03 02:02:59;;;;;;;2.53;2.33;;;19.90;73.30;;;;;;5005704;28;20488;-93
2022/06/03 02:06:00;;;;;;;2.00;1.90;;;19.90;73.40;;;;;;5005498;28;20535;-93
2022/06/03 02:08:45;;;;;;;2.30;2.10;;;19.80;73.30;;;;;;5034920;28;20586;-93
2022/06/03 02:11:11;;;;;;;2.90;2.70;;;19.80;73.30;;;;;;5018310;28;20482;-94
2022/06/03 02:13:42;;;;;;;3.00;2.17;;;19.80;73.30;;;;;;5037193;28;20431;-94
2022/06/03 02:16:42;;;;;;;2.30;2.10;;;19.80;73.40;;;;;;5038714;28;20234;-93
2022/06/03 02:19:40;;;;;;;3.00;2.30;;;19.80;73.40;;;;;;5004856;28;20519;-93
2022/06/03 02:22:42;;;;;;;2.37;2.17;;;19.70;73.40;;;;;;5038047;28;20475;-93
2022/06/03 02:25:18;;;;;;;2.47;2.30;;;19.80;73.50;;;;;;5021177;28;21233;-93
2022/06/03 02:27:49;;;;;;;3.50;2.03;;;19.70;73.50;;;;;;5038131;28;20425;-94
2022/06/03 02:30:40;;;;;;;2.30;2.10;;;19.70;73.50;;;;;;5037587;28;20456;-93
2022/06/03 02:33:08;;;;;;;2.20;2.00;;;19.70;73.60;;;;;;5021432;28;20595;-93
2022/06/03 02:35:43;;;;;;;2.13;1.93;;;19.70;73.60;;;;;;5021281;28;20454;-94
2022/06/03 02:38:15;;;;;;;2.30;2.10;;;19.70;73.70;;;;;;5004576;28;20523;-93
2022/06/03 02:41:19;;;;;;;2.50;2.30;;;19.70;73.70;;;;;;5038169;28;20467;-93
2022/06/03 02:43:58;;;;;;;2.30;2.10;;;19.60;73.70;;;;;;5038074;28;20438;-93
2022/06/03 02:46:47;;;;;;;2.50;2.30;;;19.60;73.80;;;;;;5037465;28;20551;-94
2022/06/03 02:49:49;;;;;;;3.20;2.30;;;19.60;73.80;;;;;;5021292;28;20427;-94
2022/06/03 02:52:32;;;;;;;3.17;2.10;;;19.60;73.80;;;;;;5037092;28;20498;-89
2022/06/03 02:55:37;;;;;;;2.10;1.90;;;19.50;73.70;;;;;;5020864;28;20510;-94
2022/06/03 02:58:39;;;;;;;2.33;2.13;;;19.50;73.80;;;;;;5021104;28;20518;-94
2022/06/03 03:01:16;;;;;;;2.33;2.13;;;19.50;73.90;;;;;;5001687;28;20420;-93
2022/06/03 03:04:20;;;;;;;2.33;2.13;;;19.50;73.90;;;;;;5035588;28;20542;-94
2022/06/03 03:07:15;;;;;;;2.40;2.20;;;19.50;74.00;;;;;;5020811;28;20438;-94
2022/06/03 03:10:15;;;;;;;2.90;2.60;;;19.50;74.00;;;;;;5036198;28;20558;-93
2022/06/03 03:13:02;;;;;;;2.80;2.60;;;19.50;74.10;;;;;;5020226;28;20435;-94
2022/06/03 03:15:36;;;;;;;3.33;2.20;;;19.40;74.00;;;;;;5029425;28;20478;-92
2022/06/03 03:18:39;;;;;;;2.43;2.23;;;19.40;74.10;;;;;;5020548;28;20510;-93
2022/06/03 03:21:48;;;;;;;2.87;2.30;;;19.40;74.20;;;;;;5036980;28;20431;-93
2022/06/03 03:24:52;;;;;;;5.70;2.43;;;19.30;74.10;;;;;;5036826;28;20408;-93
2022/06/03 03:27:47;;;;;;;2.30;2.20;;;19.40;74.30;;;;;;5036744;28;20415;-94
2022/06/03 03:30:35;;;;;;;2.43;2.23;;;19.30;74.20;;;;;;5017011;28;20464;-94
2022/06/03 03:33:40;;;;;;;2.10;1.90;;;19.30;74.20;;;;;;5021208;28;20490;-94
2022/06/03 03:36:42;;;;;;;3.53;2.40;;;19.30;74.30;;;;;;5017066;28;20477;-94
2022/06/03 03:39:29;;;;;;;2.23;2.03;;;19.30;74.30;;;;;;5020318;28;20507;-94
2022/06/03 03:42:25;;;;;;;2.20;2.00;;;19.30;74.30;;;;;;5036187;28;20438;-94
2022/06/03 03:45:17;;;;;;;3.10;2.10;;;19.20;74.30;;;;;;5036474;28;20412;-93
2022/06/03 03:48:15;;;;;;;2.43;2.07;;;19.20;74.30;;;;;;5020136;28;20835;-93
2022/06/03 03:50:59;;;;;;;2.57;2.20;;;19.20;74.40;;;;;;5036237;28;20468;-94
2022/06/03 03:53:54;;;;;;;2.00;1.90;;;19.20;74.40;;;;;;5004178;28;20436;-93
2022/06/03 03:56:32;;;;;;;2.57;2.37;;;19.20;74.50;;;;;;5036989;28;20431;-93
2022/06/03 03:59:06;;;;;;;2.23;2.03;;;19.20;74.40;;;;;;5019819;28;20449;-94
2022/06/03 04:01:51;;;;;;;3.10;2.40;;;19.10;74.40;;;;;;5003508;28;20429;-94
2022/06/03 04:04:38;;;;;;;2.43;2.23;;;19.10;74.40;;;;;;5036624;28;20582;-94
2022/06/03 04:07:12;;;;;;;2.03;1.90;;;19.10;74.40;;;;;;5030137;28;20438;-93
2022/06/03 04:10:03;;;;;;;2.70;1.90;;;19.10;74.50;;;;;;5016301;28;20531;-93
2022/06/03 04:13:08;;;;;;;2.40;2.13;;;19.10;74.50;;;;;;5013567;28;20435;-94
2022/06/03 04:16:01;;;;;;;3.27;2.40;;;19.10;74.60;;;;;;5019612;28;20736;-93
2022/06/03 04:19:02;;;;;;;2.77;2.57;;;19.00;74.50;;;;;;5014319;28;20452;-92
2022/06/03 04:21:55;;;;;;;2.30;2.10;;;19.10;74.70;;;;;;5006527;28;20435;-93
2022/06/03 04:24:54;;;;;;;3.20;2.90;;;19.00;74.60;;;;;;5036385;28;20751;-93
2022/06/03 04:27:47;;;;;;;2.30;2.10;;;19.00;74.60;;;;;;5019485;28;20428;-93
2022/06/03 04:30:25;;;;;;;2.43;2.23;;;19.00;74.70;;;;;;5036100;28;20497;-94
2022/06/03 04:33:41;;;;;;;3.40;2.40;;;19.00;74.70;;;;;;5019438;28;20414;-92
2022/06/03 04:36:48;;;;;;;2.70;2.47;;;18.90;74.60;;;;;;5028100;28;20477;-93
2022/06/03 04:39:41;;;;;;;2.20;2.00;;;18.90;74.70;;;;;;5034197;28;20506;-93
2022/06/03 04:42:43;;;;;;;2.07;1.90;;;18.90;74.80;;;;;;5035563;28;20452;-91
2022/06/03 04:45:30;;;;;;;2.60;2.13;;;18.90;74.90;;;;;;5032322;28;20428;-93
2022/06/03 04:48:20;;;;;;;2.20;2.10;;;18.90;74.90;;;;;;5015840;28;20425;-92
2022/06/03 04:50:54;;;;;;;2.30;2.10;;;18.90;75.00;;;;;;4999292;28;20454;-92
2022/06/03 04:53:48;;;;;;;2.40;2.20;;;18.90;75.00;;;;;;5015600;28;20432;-92
2022/06/03 04:56:25;;;;;;;2.10;1.90;;;18.80;75.00;;;;;;5015429;28;20420;-93
2022/06/03 04:59:28;;;;;;;2.50;2.30;;;18.80;75.00;;;;;;5015500;28;20403;-92
2022/06/03 05:02:29;;;;;;;2.80;2.10;;;18.80;75.10;;;;;;5028454;28;20418;-92
2022/06/03 05:05:17;;;;;;;2.60;2.17;;;18.80;75.10;;;;;;5034153;28;20544;-91
2022/06/03 05:08:07;;;;;;;2.70;2.50;;;18.80;75.20;;;;;;5018490;28;20442;-91
2022/06/03 05:10:42;;;;;;;3.63;2.33;;;18.80;75.30;;;;;;5018255;28;20475;-92
2022/06/03 05:13:45;;;;;;;2.77;2.57;;;18.80;75.30;;;;;;5035759;28;20431;-93
2022/06/03 05:16:50;;;;;;;3.90;2.60;;;18.80;75.30;;;;;;5035350;28;20446;-92
2022/06/03 05:20:07;;;;;;;3.20;2.27;;;18.80;75.40;;;;;;5035244;28;20419;-93
2022/06/03 05:22:47;;;;;;;2.50;2.30;;;18.70;75.30;;;;;;5014015;28;20482;-93
2022/06/03 05:25:37;;;;;;;2.63;2.43;;;18.70;75.40;;;;;;5031166;28;20928;-94
2022/06/03 05:28:23;;;;;;;4.83;2.40;;;18.70;75.50;;;;;;5035103;28;20767;-92
2022/06/03 05:31:08;;;;;;;2.80;2.50;;;18.70;75.70;;;;;;5018024;28;20467;-94
2022/06/03 05:34:00;;;;;;;2.50;2.30;;;18.70;75.70;;;;;;5039213;28;20444;-94
2022/06/03 05:36:44;;;;;;;2.67;2.47;;;18.70;75.70;;;;;;5038750;28;20759;-93
2022/06/03 05:39:31;;;;;;;2.40;2.20;;;18.70;75.80;;;;;;5019194;28;20442;-93
2022/06/03 05:42:27;;;;;;;2.47;2.27;;;18.70;75.90;;;;;;5018061;28;20852;-94
2022/06/03 05:45:29;;;;;;;3.50;3.20;;;18.70;75.90;;;;;;5039100;28;20431;-93
2022/06/03 05:48:23;;;;;;;2.53;2.33;;;18.70;75.90;;;;;;5022175;28;20407;-93
2022/06/03 05:50:58;;;;;;;3.03;2.60;;;18.70;75.90;;;;;;5021022;28;20861;-93
2022/06/03 05:53:39;;;;;;;2.50;2.30;;;18.70;76.00;;;;;;5058408;28;20481;-95
2022/06/03 05:56:20;;;;;;;2.80;2.33;;;18.60;75.90;;;;;;5021874;28;20415;-94
2022/06/03 05:58:59;;;;;;;2.10;2.00;;;18.60;76.00;;;;;;5039439;28;20410;-93
2022/06/03 06:01:46;;;;;;;2.50;2.30;;;18.60;76.00;;;;;;5022126;28;20550;-94
2022/06/03 06:04:12;;;;;;;2.77;2.47;;;18.60;76.00;;;;;;5021828;28;20502;-94
2022/06/03 06:07:03;;;;;;;2.20;2.00;;;18.60;76.00;;;;;;5006622;28;20451;-94
2022/06/03 06:09:53;;;;;;;2.80;2.60;;;18.60;76.00;;;;;;5058158;28;20520;-94
2022/06/03 06:12:36;;;;;;;2.67;2.00;;;18.60;76.00;;;;;;5058726;28;20730;-94
2022/06/03 06:15:12;;;;;;;2.63;2.43;;;18.60;76.00;;;;;;5037673;28;20458;-93
2022/06/03 06:18:08;;;;;;;2.00;1.90;;;18.60;76.00;;;;;;5005087;28;20470;-94
2022/06/03 06:20:46;;;;;;;2.30;2.10;;;18.60;76.00;;;;;;5038054;28;20474;-94
2022/06/03 06:23:20;;;;;;;2.50;2.30;;;18.60;76.00;;;;;;5022650;28;20427;-94
2022/06/03 06:26:05;;;;;;;2.40;2.20;;;18.60;76.00;;;;;;5005525;28;20424;-93
2022/06/03 06:28:49;;;;;;;2.40;2.13;;;18.60;76.00;;;;;;5038848;28;20395;-94
2022/06/03 06:31:34;;;;;;;2.70;2.00;;;18.60;76.00;;;;;;5004878;28;20463;-93
2022/06/03 06:34:26;;;;;;;2.40;2.20;;;18.60;76.00;;;;;;5038306;28;20921;-94
2022/06/03 06:37:15;;;;;;;2.27;2.10;;;18.60;76.00;;;;;;5018557;28;20427;-95
2022/06/03 06:40:02;;;;;;;2.10;1.97;;;18.60;76.10;;;;;;5012930;28;20438;-93
2022/06/03 06:42:52;;;;;;;2.63;2.43;;;18.60;76.20;;;;;;5036991;28;20968;-94
2022/06/03 06:45:21;;;;;;;3.40;2.40;;;18.60;76.40;;;;;;5037478;28;20898;-91
2022/06/03 06:48:06;;;;;;;2.50;2.30;;;18.60;76.30;;;;;;5037346;28;20439;-94
2022/06/03 06:50:48;;;;;;;2.43;2.23;;;18.60;76.40;;;;;;5038353;28;20852;-93
2022/06/03 06:53:38;;;;;;;2.50;2.30;;;18.60;76.50;;;;;;5021001;28;20411;-92
2022/06/03 06:56:39;;;;;;;2.40;2.20;;;18.60;76.40;;;;;;5020694;28;20553;-94
2022/06/03 06:59:15;;;;;;;2.40;2.20;;;18.60;76.30;;;;;;5003646;28;20423;-94
2022/06/03 07:01:50;;;;;;;2.50;2.30;;;18.60;76.40;;;;;;5020966;28;20447;-95
2022/06/03 07:12:09;;;;;;;2.23;2.03;;;18.70;76.70;;;;;;5032390;22;20918;-73
2022/06/03 07:15:11;;;;;;;2.33;2.13;;;18.70;76.90;;;;;;4995509;28;20922;-74
2022/06/03 07:21:32;;;;;;;2.60;2.40;;;18.70;77.30;;;;;;5012023;28;20497;-75
2022/06/03 07:24:17;;;;;;;2.23;2.03;;;18.70;77.20;;;;;;5011076;28;20458;-73
2022/06/03 07:26:57;;;;;;;2.30;2.10;;;18.70;77.20;;;;;;4979886;28;20556;-73
2022/06/03 07:29:42;;;;;;;2.57;2.37;;;18.70;77.40;;;;;;5013100;28;20412;-71
2022/06/03 07:32:21;;;;;;;2.40;2.20;;;18.80;77.60;;;;;;5012307;28;20503;-73
2022/06/03 07:34:57;;;;;;;2.80;2.47;;;18.80;77.70;;;;;;5012984;28;20803;-72
2022/06/03 07:37:49;;;;;;;4.83;2.43;;;18.80;77.80;;;;;;4992049;28;20511;-69
2022/06/03 07:40:39;;;;;;;2.60;2.40;;;18.80;77.90;;;;;;4984250;28;20468;-70
2022/06/03 07:43:14;;;;;;;2.00;1.90;;;18.90;78.10;;;;;;5012368;28;20451;-70
2022/06/03 07:45:48;;;;;;;2.93;2.63;;;18.90;78.20;;;;;;5013083;28;20405;-69
2022/06/03 07:48:22;;;;;;;2.80;2.60;;;18.90;78.30;;;;;;4995977;28;21002;-69
2022/06/03 07:51:02;;;;;;;2.80;2.60;;;18.90;78.30;;;;;;4989648;28;20482;-68
2022/06/03 07:53:50;;;;;;;2.57;2.37;;;19.00;78.50;;;;;;5012372;28;20526;-68
2022/06/03 07:56:26;;;;;;;2.50;2.03;;;19.00;78.50;;;;;;5011763;28;20484;-69
2022/06/03 07:58:59;;;;;;;3.20;2.10;;;19.00;78.40;;;;;;5011868;28;20475;-69
2022/06/03 08:01:42;;;;;;;2.47;2.27;;;19.00;78.60;;;;;;5012716;28;20436;-70
2022/06/03 08:04:25;;;;;;;2.53;2.30;;;19.00;78.60;;;;;;4992398;28;20454;-68
2022/06/03 08:12:34;;;;;;;2.50;2.30;;;19.20;78.90;;;;;;4990644;28;20572;-68
2022/06/03 08:15:18;;;;;;;2.27;2.07;;;19.20;78.90;;;;;;4992166;28;20513;-68
2022/06/03 08:17:46;;;;;;;2.70;2.50;;;19.20;78.90;;;;;;5008801;28;20928;-68
2022/06/03 08:20:23;;;;;;;2.37;2.17;;;19.20;79.00;;;;;;5011471;28;20433;-68
2022/06/03 08:22:50;;;;;;;4.00;1.97;;;19.30;79.10;;;;;;5011671;28;20412;-68
2022/06/03 08:25:34;;;;;;;2.17;2.07;;;19.30;79.10;;;;;;5028085;28;20413;-68
2022/06/03 08:28:02;;;;;;;2.50;2.30;;;19.30;79.00;;;;;;5006279;28;20426;-68
2022/06/03 08:30:32;;;;;;;2.30;2.10;;;19.30;79.00;;;;;;5010010;28;20546;-68
2022/06/03 08:33:06;;;;;;;3.40;2.20;;;19.40;79.20;;;;;;5009681;28;20453;-72
2022/06/03 08:35:36;;;;;;;2.60;2.40;;;19.40;79.10;;;;;;4994541;28;20810;-72
2022/06/03 08:38:26;;;;;;;2.80;2.60;;;19.40;79.20;;;;;;5011916;28;20438;-72
2022/06/03 08:41:15;;;;;;;2.70;2.50;;;19.50;79.20;;;;;;5011432;28;20456;-72
2022/06/03 08:44:08;;;;;;;2.37;2.07;;;19.50;79.10;;;;;;5012531;28;20412;-72
2022/06/03 08:46:53;;;;;;;3.10;2.83;;;19.60;79.20;;;;;;4985803;28;20812;-72
2022/06/03 08:49:25;;;;;;;3.80;2.27;;;19.60;79.20;;;;;;5001570;28;20477;-72
2022/06/03 08:52:00;;;;;;;2.80;1.93;;;19.60;79.20;;;;;;5009445;28;20514;-72
2022/06/03 08:54:38;;;;;;;2.90;2.70;;;19.70;79.30;;;;;;5007255;28;20465;-72
2022/06/03 08:57:46;;;;;;;2.93;2.27;;;19.70;79.30;;;;;;5003581;28;20493;-72
2022/06/03 09:00:20;;;;;;;2.30;2.10;;;19.70;79.30;;;;;;5011174;28;20441;-72
2022/06/03 09:02:54;;;;;;;3.50;2.30;;;19.80;79.40;;;;;;5011331;28;20424;-72
2022/06/03 09:05:33;;;;;;;4.53;2.67;;;19.80;79.40;;;;;;4994907;28;20433;-72
2022/06/03 09:08:03;;;;;;;2.20;2.00;;;19.80;79.40;;;;;;5010948;28;20969;-72
2022/06/03 09:10:41;;;;;;;2.70;2.37;;;19.90;79.50;;;;;;4978766;28;20941;-72
2022/06/03 09:13:36;;;;;;;2.33;2.03;;;19.90;79.50;;;;;;5009812;28;20527;-73
2022/06/03 09:16:06;;;;;;;2.10;1.90;;;20.00;79.50;;;;;;4993665;28;20449;-72
2022/06/03 09:18:48;;;;;;;2.30;2.10;;;20.00;79.50;;;;;;5011786;28;20417;-72
2022/06/03 09:21:22;;;;;;;3.03;2.23;;;20.00;79.50;;;;;;5010786;28;20466;-72
2022/06/03 09:23:55;;;;;;;2.23;2.10;;;20.10;79.50;;;;;;5012011;28;21011;-72
2022/06/03 09:26:34;;;;;;;2.30;2.10;;;20.10;79.60;;;;;;4993700;28;20425;-72
2022/06/03 09:29:06;;;;;;;5.53;2.23;;;20.10;79.50;;;;;;4993519;28;20465;-74
2022/06/03 09:31:36;;;;;;;2.50;2.30;;;20.20;79.50;;;;;;5010610;28;20523;-76
2022/06/03 09:34:06;;;;;;;2.23;2.03;;;20.20;79.50;;;;;;5012287;28;20402;-76
2022/06/03 09:36:33;;;;;;;2.50;2.07;;;20.20;79.40;;;;;;5009436;28;20446;-78
2022/06/03 09:39:09;;;;;;;2.80;2.60;;;20.30;79.40;;;;;;5011100;28;20430;-75
2022/06/03 09:41:47;;;;;;;6.57;2.40;;;20.30;79.30;;;;;;5010161;28;21005;-77
2022/06/03 09:44:17;;;;;;;2.20;2.00;;;20.40;79.40;;;;;;5010148;28;20461;-76
2022/06/03 09:46:44;;;;;;;2.63;2.10;;;20.40;79.30;;;;;;5009967;28;20479;-76
2022/06/03 09:49:17;;;;;;;5.20;2.23;;;20.50;79.30;;;;;;5010746;28;20573;-77
2022/06/03 09:52:03;;;;;;;2.63;2.30;;;20.50;79.20;;;;;;5009800;28;20480;-76
2022/06/03 09:54:40;;;;;;;3.53;2.37;;;20.50;79.10;;;;;;4992199;28;20395;-76
2022/06/03 09:57:09;;;;;;;2.23;1.60;;;20.60;79.10;;;;;;5007654;28;20795;-76
2022/06/03 09:59:42;;;;;;;2.50;2.30;;;20.60;79.00;;;;;;5011739;28;20441;-77
2022/06/03 10:02:09;;;;;;;3.00;2.33;;;20.70;79.10;;;;;;5012017;28;20493;-76
2022/06/03 10:04:35;;;;;;;2.30;2.00;;;20.70;78.90;;;;;;5011775;28;21015;-76
2022/06/03 10:07:04;;;;;;;2.33;2.13;;;20.70;78.90;;;;;;5020794;28;20830;-76
2022/06/03 10:12:53;;;;;;;3.47;1.90;;;20.80;78.70;;;;;;5011672;28;20449;-76
2022/06/03 10:15:38;;;;;;;2.40;2.20;;;20.90;78.50;;;;;;5010770;28;20476;-76
2022/06/03 10:18:15;;;;;;;6.97;2.37;;;20.90;78.40;;;;;;5012144;28;20428;-76
2022/06/03 10:20:42;;;;;;;2.40;2.20;;;21.00;78.40;;;;;;4996914;28;20463;-76
2022/06/03 10:23:11;;;;;;;2.40;2.20;;;21.00;78.30;;;;;;5029792;28;20933;-76
2022/06/03 10:25:46;;;;;;;2.30;2.10;;;21.00;78.10;;;;;;5014054;28;20424;-76
2022/06/03 10:28:16;;;;;;;2.63;2.43;;;21.10;78.00;;;;;;4981703;28;20603;-76
2022/06/03 10:30:59;;;;;;;2.63;2.43;;;21.10;77.80;;;;;;5012685;28;20899;-76
2022/06/03 10:33:28;;;;;;;3.57;2.23;;;21.10;77.60;;;;;;5013598;28;20438;-76
2022/06/03 10:36:00;;;;;;;4.80;2.10;;;21.20;77.60;;;;;;5012906;28;20535;-76
2022/06/03 10:38:29;;;;;;;2.73;2.20;;;21.20;77.40;;;;;;5013733;28;20416;-76
2022/06/03 10:40:58;;;;;;;2.50;2.30;;;21.20;77.10;;;;;;5012346;28;20454;-76
2022/06/03 10:43:32;;;;;;;1.90;1.80;;;21.30;77.20;;;;;;5014450;28;20559;-76
2022/06/03 10:46:10;;;;;;;2.13;1.93;;;21.30;77.00;;;;;;5012309;28;20880;-75
2022/06/03 10:48:36;;;;;;;2.20;1.93;;;21.30;76.90;;;;;;4995265;28;20435;-76
2022/06/03 11:02:37;;;;;;;2.37;1.83;;;21.50;76.90;;;;;;5012450;28;20447;-75
2022/06/03 11:05:23;;;;;;;2.50;2.00;;;21.50;76.80;;;;;;5013960;28;20411;-75
2022/06/03 11:08:01;;;;;;;2.13;1.83;;;21.60;76.90;;;;;;5012274;28;20451;-75
2022/06/03 11:10:40;;;;;;;2.20;2.00;;;21.60;76.70;;;;;;4996057;28;21031;-75
2022/06/03 11:13:12;;;;;;;2.63;2.00;;;21.70;76.60;;;;;;5012482;28;20434;-75
2022/06/03 11:15:43;;;;;;;2.10;1.90;;;21.70;76.50;;;;;;5012690;28;20963;-75
2022/06/03 11:18:20;;;;;;;3.47;2.57;;;21.80;76.40;;;;;;5012151;28;20492;-75
2022/06/03 11:20:50;;;;;;;2.70;1.90;;;21.80;76.20;;;;;;5013394;28;20443;-75
2022/06/03 11:23:19;;;;;;;3.50;2.40;;;21.80;76.10;;;;;;5012457;28;20404;-75
2022/06/03 11:25:52;;;;;;;2.47;2.27;;;21.80;75.90;;;;;;5012375;28;20511;-75
2022/06/03 11:28:21;;;;;;;2.60;1.93;;;21.90;76.00;;;;;;5012380;28;20440;-75
2022/06/03 11:30:52;;;;;;;2.30;2.10;;;21.90;75.80;;;;;;5011358;28;20889;-75
2022/06/03 11:33:33;;;;;;;3.43;2.00;;;21.90;75.70;;;;;;5012125;28;20418;-75
2022/06/03 11:36:39;;;;;;;2.27;2.17;;;22.00;75.60;;;;;;4995852;28;20555;-75
2022/06/03 11:39:35;;;;;;;2.33;2.17;;;22.00;75.50;;;;;;5012168;28;20795;-75
2022/06/03 11:42:05;;;;;;;2.27;2.07;;;22.10;75.50;;;;;;5011038;28;20823;-75
2022/06/03 11:44:46;;;;;;;2.53;2.33;;;22.10;75.40;;;;;;5012168;28;20462;-75
2022/06/03 11:47:31;;;;;;;2.57;1.80;;;22.10;75.40;;;;;;4995772;28;20440;-75
2022/06/03 11:49:59;;;;;;;2.33;2.13;;;22.10;75.40;;;;;;5012878;28;20471;-75
2022/06/03 11:52:25;;;;;;;2.27;2.07;;;22.20;75.50;;;;;;5011532;28;20411;-75
2022/06/03 11:54:54;;;;;;;2.40;2.17;;;22.20;75.40;;;;;;5012696;28;21002;-75
2022/06/03 11:57:21;;;;;;;2.33;2.13;;;22.20;75.30;;;;;;5012867;28;20413;-75
2022/06/03 12:00:09;;;;;;;3.10;2.53;;;22.30;75.40;;;;;;5011826;28;20911;-76
2022/06/03 12:03:04;;;;;;;2.00;1.80;;;22.30;75.30;;;;;;5011576;28;20419;-75
2022/06/03 12:05:35;;;;;;;2.87;2.17;;;22.30;75.30;;;;;;5013045;28;20998;-75
2022/06/03 12:08:19;;;;;;;2.30;2.10;;;22.40;75.30;;;;;;4995682;28;20435;-75
2022/06/03 12:11:04;;;;;;;2.30;2.20;;;22.40;75.20;;;;;;4991114;28;20488;-75
2022/06/03 12:13:32;;;;;;;2.30;2.10;;;22.50;75.20;;;;;;4975910;28;20502;-75
2022/06/03 12:16:03;;;;;;;2.53;2.43;;;22.50;75.20;;;;;;4993223;28;20902;-76
2022/06/03 12:18:35;;;;;;;2.50;2.30;;;22.50;75.00;;;;;;4975756;28;20944;-76
2022/06/03 12:21:07;;;;;;;2.47;2.20;;;22.60;75.10;;;;;;4982623;28;20459;-76
2022/06/03 12:23:38;;;;;;;2.20;2.00;;;22.60;75.00;;;;;;5011561;28;20478;-76
2022/06/03 12:26:24;;;;;;;2.23;2.03;;;22.60;75.00;;;;;;5012343;28;20440;-75
2022/06/03 12:29:07;;;;;;;3.40;2.17;;;22.70;75.00;;;;;;4994748;28;20755;-75
2022/06/03 12:31:44;;;;;;;2.27;2.13;;;22.70;75.00;;;;;;4994637;28;20472;-75
2022/06/03 12:34:21;;;;;;;2.30;2.13;;;22.70;75.00;;;;;;5012274;28;20472;-75
2022/06/03 12:36:50;;;;;;;2.70;2.03;;;22.80;74.90;;;;;;5011674;28;20464;-75
2022/06/03 12:39:29;;;;;;;3.63;2.30;;;22.80;74.80;;;;;;5010917;28;20878;-75
2022/06/03 12:42:07;;;;;;;2.40;2.20;;;22.90;74.80;;;;;;5009822;28;20515;-75
2022/06/03 12:44:47;;;;;;;2.97;2.77;;;22.90;74.70;;;;;;5011754;28;20459;-76
2022/06/03 12:47:34;;;;;;;3.73;2.37;;;23.00;74.80;;;;;;4980162;28;20431;-76
2022/06/03 12:50:04;;;;;;;2.87;2.27;;;23.00;74.70;;;;;;5012227;28;20436;-76
2022/06/03 12:52:30;;;;;;;2.50;2.30;;;23.00;74.40;;;;;;5013593;28;20416;-76
2022/06/03 12:55:13;;;;;;;2.43;2.23;;;23.10;74.50;;;;;;4996144;28;20455;-76
2022/06/03 12:57:39;;;;;;;7.37;2.10;;;23.10;74.50;;;;;;4996190;28;20258;-76
2022/06/03 13:00:12;;;;;;;3.63;2.43;;;23.20;74.60;;;;;;4996087;28;20813;-76
2022/06/03 13:02:55;;;;;;;2.60;2.40;;;23.20;74.50;;;;;;4996356;28;20453;-76
2022/06/03 13:05:43;;;;;;;2.80;2.60;;;23.20;74.60;;;;;;5013461;28;20681;-76
2022/06/03 13:08:31;;;;;;;2.67;2.47;;;23.20;74.50;;;;;;5013282;28;20401;-76
2022/06/03 13:11:20;;;;;;;3.17;2.77;;;23.20;74.40;;;;;;5012024;28;20890;-76
2022/06/03 13:13:57;;;;;;;2.40;2.20;;;23.30;74.30;;;;;;4996744;28;20405;-76
2022/06/03 13:16:24;;;;;;;3.13;2.40;;;23.30;74.10;;;;;;5012340;28;20905;-76
2022/06/03 13:18:52;;;;;;;3.43;2.20;;;23.40;74.10;;;;;;5013283;28;20397;-76
2022/06/03 13:21:49;;;;;;;2.03;1.90;;;23.40;73.90;;;;;;4995758;28;20447;-76
2022/06/03 13:24:28;;;;;;;2.60;2.40;;;23.40;73.70;;;;;;5028455;28;20436;-76
2022/06/03 13:27:08;;;;;;;5.73;2.60;;;23.50;73.80;;;;;;5013303;28;20450;-76
2022/06/03 13:29:50;;;;;;;3.37;2.53;;;23.50;74.00;;;;;;5013077;28;20458;-76
2022/06/03 13:32:35;;;;;;;2.70;2.50;;;23.50;74.10;;;;;;5012005;28;20452;-76
2022/06/03 13:35:23;;;;;;;3.30;3.00;;;23.60;74.10;;;;;;5012098;28;20409;-76
2022/06/03 13:38:10;;;;;;;2.63;2.43;;;23.60;73.90;;;;;;4995821;28;20417;-75
2022/06/03 13:40:39;;;;;;;2.80;2.60;;;23.70;74.00;;;;;;5013046;28;20810;-76
2022/06/03 13:43:27;;;;;;;3.13;2.83;;;23.70;74.10;;;;;;4996096;28;20511;-76
2022/06/03 13:46:04;;;;;;;2.90;2.70;;;23.70;74.20;;;;;;5013112;28;20820;-76
2022/06/03 13:48:42;;;;;;;2.23;2.13;;;23.80;74.30;;;;;;5013241;28;20416;-76
2022/06/03 13:51:31;;;;;;;2.60;2.40;;;23.80;74.20;;;;;;5011716;28;20459;-76
2022/06/03 13:54:15;;;;;;;5.37;2.33;;;23.90;74.20;;;;;;5015418;28;20415;-77
2022/06/03 13:56:55;;;;;;;2.80;2.60;;;23.90;74.30;;;;;;5015552;28;20418;-76
2022/06/03 13:59:23;;;;;;;2.33;2.23;;;23.90;74.20;;;;;;4999244;28;20817;-76
2022/06/03 14:01:52;;;;;;;3.07;2.77;;;23.90;74.10;;;;;;5016784;28;20401;-76
2022/06/03 14:04:24;;;;;;;2.97;2.77;;;23.90;74.00;;;;;;5016629;28;21046;-77
2022/06/03 14:07:11;;;;;;;2.70;2.50;;;24.00;74.00;;;;;;5015454;28;20470;-76
2022/06/03 14:09:51;;;;;;;2.53;2.27;;;24.00;73.90;;;;;;5016438;28;20494;-76
2022/06/03 14:12:26;;;;;;;2.77;2.47;;;24.00;73.90;;;;;;5015161;28;20459;-76
2022/06/03 14:15:02;;;;;;;2.73;2.57;;;24.10;74.30;;;;;;4999536;28;20514;-77
2022/06/03 14:17:30;;;;;;;2.73;2.53;;;24.10;74.20;;;;;;5015135;28;20809;-76
2022/06/03 14:19:56;;;;;;;2.90;2.70;;;24.10;74.10;;;;;;4999070;28;20543;-77
2022/06/03 14:22:42;;;;;;;2.63;2.43;;;24.10;74.00;;;;;;5015175;28;20503;-76
2022/06/03 14:25:19;;;;;;;3.03;2.83;;;24.20;74.20;;;;;;5015080;28;20166;-76
2022/06/03 14:28:01;;;;;;;3.10;2.90;;;24.20;74.20;;;;;;5014980;28;20413;-76
2022/06/03 14:30:45;;;;;;;3.13;2.93;;;24.20;74.20;;;;;;5015059;28;20460;-76
2022/06/03 14:33:19;;;;;;;2.70;2.50;;;24.20;74.30;;;;;;5015572;28;20985;-77
2022/06/03 14:35:51;;;;;;;2.77;2.57;;;24.20;74.20;;;;;;4998865;28;20413;-76
2022/06/03 14:38:38;;;;;;;2.53;2.33;;;24.30;74.10;;;;;;4998476;28;20502;-76